sensor_id;sensor_type;location;lat;lon;timestamp;P1;durP1;ratioP1;P2;durP2;ratioP2
57891;SDS011;43708;48.828;9.166;2023-03-01T00:01:59;4.57;;;4.18;;
57891;SDS011;43708;48.828;9.166;2023-03-01T00:04:25;3.88;;;3.47;;
57891;SDS011;43708;48.828;9.166;2023-03-01T00:06:50;4.10;;;3.40;;
57891;SDS011;43708;48.828;9.166;2023-03-01T00:09:16;3.83;;;3.40;;
57891;SDS011;43708;48.828;9.166;2023-03-01T00:11:41;4.10;;;3.70;;
57891;SDS011;43708;48.828;9.166;2023-03-01T00:14:07;3.45;;;3.15;;
57891;SDS011;43708;48.828;9.166;2023-03-01T00:16:34;3.78;;;3.45;;
57891;SDS011;43708;48.828;9.166;2023-03-01T00:19:05;3.42;;;3.13;;
57891;SDS011;43708;48.828;9.166;2023-03-01T00:21:32;4.30;;;3.55;;
57891;SDS011;43708;48.828;9.166;2023-03-01T00:23:58;3.42;;;3.13;;
57891;SDS011;43708;48.828;9.166;2023-03-01T00:26:24;3.47;;;3.17;;
57891;SDS011;43708;48.828;9.166;2023-03-01T00:28:51;3.65;;;3.35;;
57891;SDS011;43708;48.828;9.166;2023-03-01T00:31:18;3.47;;;3.17;;
57891;SDS011;43708;48.828;9.166;2023-03-01T00:33:47;3.35;;;3.05;;
57891;SDS011;43708;48.828;9.166;2023-03-01T00:36:14;4.13;;;3.72;;
57891;SDS011;43708;48.828;9.166;2023-03-01T00:38:41;3.63;;;3.33;;
57891;SDS011;43708;48.828;9.166;2023-03-01T00:41:09;4.13;;;3.67;;
57891;SDS011;43708;48.828;9.166;2023-03-01T00:43:37;4.07;;;3.67;;
57891;SDS011;43708;48.828;9.166;2023-03-01T00:46:03;3.55;;;3.25;;
57891;SDS011;43708;48.828;9.166;2023-03-01T00:48:31;4.00;;;3.60;;
57891;SDS011;43708;48.828;9.166;2023-03-01T00:50:57;3.28;;;3.00;;
57891;SDS011;43708;48.828;9.166;2023-03-01T00:53:32;3.38;;;3.08;;
57891;SDS011;43708;48.828;9.166;2023-03-01T00:55:58;4.03;;;3.53;;
57891;SDS011;43708;48.828;9.166;2023-03-01T00:58:24;3.45;;;3.15;;
57891;SDS011;43708;48.828;9.166;2023-03-01T01:00:49;3.20;;;2.90;;
57891;SDS011;43708;48.828;9.166;2023-03-01T01:03:15;3.42;;;2.78;;
57891;SDS011;43708;48.828;9.166;2023-03-01T01:05:40;3.33;;;2.85;;
57891;SDS011;43708;48.828;9.166;2023-03-01T01:08:06;3.17;;;2.88;;
57891;SDS011;43708;48.828;9.166;2023-03-01T01:10:33;2.75;;;2.55;;
57891;SDS011;43708;48.828;9.166;2023-03-01T01:12:59;3.90;;;3.50;;
57891;SDS011;43708;48.828;9.166;2023-03-01T01:15:25;2.78;;;2.47;;
57891;SDS011;43708;48.828;9.166;2023-03-01T01:17:50;2.28;;;2.08;;
57891;SDS011;43708;48.828;9.166;2023-03-01T01:20:17;2.47;;;2.28;;
57891;SDS011;43708;48.828;9.166;2023-03-01T01:22:43;2.72;;;2.53;;
57891;SDS011;43708;48.828;9.166;2023-03-01T01:25:08;2.90;;;2.58;;
57891;SDS011;43708;48.828;9.166;2023-03-01T01:27:35;2.90;;;2.70;;
57891;SDS011;43708;48.828;9.166;2023-03-01T01:30:01;2.97;;;2.67;;
57891;SDS011;43708;48.828;9.166;2023-03-01T01:32:26;3.05;;;2.72;;
57891;SDS011;43708;48.828;9.166;2023-03-01T01:34:52;3.03;;;2.72;;
57891;SDS011;43708;48.828;9.166;2023-03-01T01:37:18;2.58;;;2.38;;
57891;SDS011;43708;48.828;9.166;2023-03-01T01:39:43;2.85;;;2.55;;
57891;SDS011;43708;48.828;9.166;2023-03-01T01:42:12;2.72;;;2.53;;
57891;SDS011;43708;48.828;9.166;2023-03-01T01:44:42;2.80;;;2.60;;
57891;SDS011;43708;48.828;9.166;2023-03-01T01:47:12;2.83;;;2.63;;
57891;SDS011;43708;48.828;9.166;2023-03-01T01:49:42;2.90;;;2.70;;
57891;SDS011;43708;48.828;9.166;2023-03-01T01:52:19;2.50;;;2.30;;
57891;SDS011;43708;48.828;9.166;2023-03-01T01:55:06;2.70;;;2.50;;
57891;SDS011;43708;48.828;9.166;2023-03-01T01:57:43;2.40;;;2.20;;
57891;SDS011;43708;48.828;9.166;2023-03-01T02:00:22;2.45;;;2.20;;
57891;SDS011;43708;48.828;9.166;2023-03-01T02:02:50;2.42;;;2.22;;
57891;SDS011;43708;48.828;9.166;2023-03-01T02:05:29;2.35;;;2.15;;
57891;SDS011;43708;48.828;9.166;2023-03-01T02:08:08;2.40;;;2.20;;
57891;SDS011;43708;48.828;9.166;2023-03-01T02:10:37;2.38;;;2.17;;
57891;SDS011;43708;48.828;9.166;2023-03-01T02:13:04;3.08;;;2.67;;
57891;SDS011;43708;48.828;9.166;2023-03-01T02:15:33;2.53;;;2.03;;
57891;SDS011;43708;48.828;9.166;2023-03-01T02:17:59;2.13;;;1.98;;
57891;SDS011;43708;48.828;9.166;2023-03-01T02:20:29;2.30;;;2.10;;
57891;SDS011;43708;48.828;9.166;2023-03-01T02:23:17;1.80;;;1.70;;
57891;SDS011;43708;48.828;9.166;2023-03-01T02:25:57;2.13;;;1.92;;
57891;SDS011;43708;48.828;9.166;2023-03-01T02:30:56;2.10;;;2.00;;
57891;SDS011;43708;48.828;9.166;2023-03-01T02:33:40;1.83;;;1.70;;
57891;SDS011;43708;48.828;9.166;2023-03-01T02:36:12;2.10;;;1.90;;
57891;SDS011;43708;48.828;9.166;2023-03-01T02:38:44;2.30;;;2.10;;
57891;SDS011;43708;48.828;9.166;2023-03-01T02:41:11;1.85;;;1.67;;
57891;SDS011;43708;48.828;9.166;2023-03-01T02:43:41;2.00;;;1.80;;
57891;SDS011;43708;48.828;9.166;2023-03-01T02:46:14;2.55;;;2.08;;
57891;SDS011;43708;48.828;9.166;2023-03-01T02:48:46;2.60;;;1.85;;
57891;SDS011;43708;48.828;9.166;2023-03-01T02:51:40;1.70;;;1.60;;
57891;SDS011;43708;48.828;9.166;2023-03-01T02:56:51;1.55;;;1.45;;
57891;SDS011;43708;48.828;9.166;2023-03-01T02:59:18;2.20;;;2.00;;
57891;SDS011;43708;48.828;9.166;2023-03-01T03:01:46;2.00;;;1.80;;
57891;SDS011;43708;48.828;9.166;2023-03-01T03:04:13;1.83;;;1.52;;
57891;SDS011;43708;48.828;9.166;2023-03-01T03:06:42;1.80;;;1.70;;
57891;SDS011;43708;48.828;9.166;2023-03-01T03:09:09;1.65;;;1.52;;
57891;SDS011;43708;48.828;9.166;2023-03-01T03:11:35;1.85;;;1.75;;
57891;SDS011;43708;48.828;9.166;2023-03-01T03:14:01;1.60;;;1.45;;
57891;SDS011;43708;48.828;9.166;2023-03-01T03:16:28;1.60;;;1.50;;
57891;SDS011;43708;48.828;9.166;2023-03-01T03:18:54;2.03;;;1.92;;
57891;SDS011;43708;48.828;9.166;2023-03-01T03:21:29;2.08;;;1.88;;
57891;SDS011;43708;48.828;9.166;2023-03-01T03:24:00;1.70;;;1.60;;
57891;SDS011;43708;48.828;9.166;2023-03-01T03:26:25;2.03;;;1.70;;
57891;SDS011;43708;48.828;9.166;2023-03-01T03:28:51;1.40;;;1.30;;
57891;SDS011;43708;48.828;9.166;2023-03-01T03:31:17;1.52;;;1.42;;
57891;SDS011;43708;48.828;9.166;2023-03-01T03:33:42;1.75;;;1.45;;
57891;SDS011;43708;48.828;9.166;2023-03-01T03:36:08;1.90;;;1.70;;
57891;SDS011;43708;48.828;9.166;2023-03-01T03:38:38;1.75;;;1.55;;
57891;SDS011;43708;48.828;9.166;2023-03-01T03:41:05;1.75;;;1.63;;
57891;SDS011;43708;48.828;9.166;2023-03-01T03:43:33;1.77;;;1.50;;
57891;SDS011;43708;48.828;9.166;2023-03-01T03:46:00;1.45;;;1.35;;
57891;SDS011;43708;48.828;9.166;2023-03-01T03:48:30;1.75;;;1.63;;
57891;SDS011;43708;48.828;9.166;2023-03-01T03:50:58;1.75;;;1.63;;
57891;SDS011;43708;48.828;9.166;2023-03-01T03:53:25;2.17;;;1.90;;
57891;SDS011;43708;48.828;9.166;2023-03-01T03:55:52;1.95;;;1.75;;
57891;SDS011;43708;48.828;9.166;2023-03-01T03:58:19;1.85;;;1.75;;
57891;SDS011;43708;48.828;9.166;2023-03-01T04:00:48;2.00;;;1.70;;
57891;SDS011;43708;48.828;9.166;2023-03-01T04:03:15;1.95;;;1.75;;
57891;SDS011;43708;48.828;9.166;2023-03-01T04:05:43;1.67;;;1.58;;
57891;SDS011;43708;48.828;9.166;2023-03-01T04:08:09;1.80;;;1.70;;
57891;SDS011;43708;48.828;9.166;2023-03-01T04:10:36;1.80;;;1.70;;
57891;SDS011;43708;48.828;9.166;2023-03-01T04:13:07;1.65;;;1.55;;
57891;SDS011;43708;48.828;9.166;2023-03-01T04:15:36;2.08;;;1.60;;
57891;SDS011;43708;48.828;9.166;2023-03-01T04:18:02;1.65;;;1.55;;
57891;SDS011;43708;48.828;9.166;2023-03-01T04:20:28;1.90;;;1.80;;
57891;SDS011;43708;48.828;9.166;2023-03-01T04:22:59;1.90;;;1.55;;
57891;SDS011;43708;48.828;9.166;2023-03-01T04:25:35;1.83;;;1.70;;
57891;SDS011;43708;48.828;9.166;2023-03-01T04:30:52;1.63;;;1.52;;
57891;SDS011;43708;48.828;9.166;2023-03-01T04:33:19;1.67;;;1.58;;
57891;SDS011;43708;48.828;9.166;2023-03-01T04:35:45;1.45;;;1.35;;
57891;SDS011;43708;48.828;9.166;2023-03-01T04:38:14;1.65;;;1.55;;
57891;SDS011;43708;48.828;9.166;2023-03-01T04:40:40;1.77;;;1.67;;
57891;SDS011;43708;48.828;9.166;2023-03-01T04:43:08;1.63;;;1.50;;
57891;SDS011;43708;48.828;9.166;2023-03-01T04:45:35;2.03;;;1.83;;
57891;SDS011;43708;48.828;9.166;2023-03-01T04:48:01;1.70;;;1.50;;
57891;SDS011;43708;48.828;9.166;2023-03-01T04:50:27;2.00;;;1.80;;
57891;SDS011;43708;48.828;9.166;2023-03-01T04:52:53;2.17;;;1.98;;
57891;SDS011;43708;48.828;9.166;2023-03-01T04:55:23;2.10;;;1.90;;
57891;SDS011;43708;48.828;9.166;2023-03-01T04:57:52;2.97;;;1.90;;
57891;SDS011;43708;48.828;9.166;2023-03-01T05:00:18;1.90;;;1.80;;
57891;SDS011;43708;48.828;9.166;2023-03-01T05:02:58;2.78;;;1.73;;
57891;SDS011;43708;48.828;9.166;2023-03-01T05:05:36;2.38;;;1.90;;
57891;SDS011;43708;48.828;9.166;2023-03-01T05:08:05;2.95;;;1.77;;
57891;SDS011;43708;48.828;9.166;2023-03-01T05:10:33;4.03;;;1.85;;
57891;SDS011;43708;48.828;9.166;2023-03-01T05:13:00;3.05;;;2.33;;
57891;SDS011;43708;48.828;9.166;2023-03-01T05:15:28;4.10;;;1.80;;
57891;SDS011;43708;48.828;9.166;2023-03-01T05:17:55;3.88;;;3.58;;
57891;SDS011;43708;48.828;9.166;2023-03-01T05:20:26;6.18;;;4.25;;
57891;SDS011;43708;48.828;9.166;2023-03-01T05:22:54;3.22;;;2.92;;
57891;SDS011;43708;48.828;9.166;2023-03-01T05:25:22;3.10;;;2.80;;
57891;SDS011;43708;48.828;9.166;2023-03-01T05:27:47;2.80;;;2.28;;
57891;SDS011;43708;48.828;9.166;2023-03-01T05:30:14;2.95;;;2.67;;
57891;SDS011;43708;48.828;9.166;2023-03-01T05:32:41;2.88;;;2.53;;
57891;SDS011;43708;48.828;9.166;2023-03-01T05:35:11;3.05;;;2.45;;
57891;SDS011;43708;48.828;9.166;2023-03-01T05:37:46;2.72;;;2.50;;
57891;SDS011;43708;48.828;9.166;2023-03-01T05:40:17;2.90;;;2.60;;
57891;SDS011;43708;48.828;9.166;2023-03-01T05:42:45;2.80;;;2.47;;
57891;SDS011;43708;48.828;9.166;2023-03-01T05:45:15;3.13;;;2.17;;
57891;SDS011;43708;48.828;9.166;2023-03-01T05:47:43;3.65;;;2.25;;
57891;SDS011;43708;48.828;9.166;2023-03-01T05:52:36;2.20;;;2.00;;
57891;SDS011;43708;48.828;9.166;2023-03-01T05:55:01;2.50;;;2.05;;
57891;SDS011;43708;48.828;9.166;2023-03-01T05:57:28;2.95;;;1.95;;
57891;SDS011;43708;48.828;9.166;2023-03-01T05:59:54;2.38;;;2.17;;
57891;SDS011;43708;48.828;9.166;2023-03-01T06:02:19;1.92;;;1.83;;
57891;SDS011;43708;48.828;9.166;2023-03-01T06:04:46;2.72;;;2.13;;
57891;SDS011;43708;48.828;9.166;2023-03-01T06:07:12;2.80;;;2.28;;
57891;SDS011;43708;48.828;9.166;2023-03-01T06:09:37;2.47;;;2.05;;
57891;SDS011;43708;48.828;9.166;2023-03-01T06:12:03;3.08;;;2.22;;
57891;SDS011;43708;48.828;9.166;2023-03-01T06:14:29;2.67;;;2.00;;
57891;SDS011;43708;48.828;9.166;2023-03-01T06:16:57;1.90;;;1.80;;
57891;SDS011;43708;48.828;9.166;2023-03-01T06:19:23;2.60;;;2.40;;
57891;SDS011;43708;48.828;9.166;2023-03-01T06:21:48;5.03;;;2.15;;
57891;SDS011;43708;48.828;9.166;2023-03-01T06:24:14;2.97;;;2.58;;
57891;SDS011;43708;48.828;9.166;2023-03-01T06:26:39;3.88;;;2.10;;
57891;SDS011;43708;48.828;9.166;2023-03-01T06:29:05;4.05;;;2.55;;
57891;SDS011;43708;48.828;9.166;2023-03-01T06:31:31;3.78;;;2.75;;
57891;SDS011;43708;48.828;9.166;2023-03-01T06:33:56;3.95;;;2.50;;
57891;SDS011;43708;48.828;9.166;2023-03-01T06:36:22;3.40;;;2.55;;
57891;SDS011;43708;48.828;9.166;2023-03-01T06:38:47;4.97;;;2.47;;
57891;SDS011;43708;48.828;9.166;2023-03-01T06:41:13;3.83;;;2.20;;
57891;SDS011;43708;48.828;9.166;2023-03-01T06:43:38;3.45;;;2.58;;
57891;SDS011;43708;48.828;9.166;2023-03-01T06:46:05;2.50;;;2.15;;
57891;SDS011;43708;48.828;9.166;2023-03-01T06:48:32;5.30;;;2.60;;
57891;SDS011;43708;48.828;9.166;2023-03-01T06:50:58;2.50;;;2.30;;
57891;SDS011;43708;48.828;9.166;2023-03-01T06:53:25;6.72;;;2.65;;
57891;SDS011;43708;48.828;9.166;2023-03-01T06:55:55;3.75;;;2.17;;
57891;SDS011;43708;48.828;9.166;2023-03-01T06:58:22;2.97;;;2.30;;
57891;SDS011;43708;48.828;9.166;2023-03-01T07:00:48;2.40;;;2.20;;
57891;SDS011;43708;48.828;9.166;2023-03-01T07:03:13;4.28;;;2.30;;
57891;SDS011;43708;48.828;9.166;2023-03-01T07:05:39;4.07;;;2.80;;
57891;SDS011;43708;48.828;9.166;2023-03-01T07:08:04;2.42;;;2.22;;
57891;SDS011;43708;48.828;9.166;2023-03-01T07:10:30;3.40;;;2.78;;
57891;SDS011;43708;48.828;9.166;2023-03-01T07:12:56;4.40;;;2.85;;
57891;SDS011;43708;48.828;9.166;2023-03-01T07:15:22;5.65;;;2.63;;
57891;SDS011;43708;48.828;9.166;2023-03-01T07:17:48;2.72;;;2.17;;
57891;SDS011;43708;48.828;9.166;2023-03-01T07:20:15;2.90;;;1.90;;
57891;SDS011;43708;48.828;9.166;2023-03-01T07:22:41;3.47;;;2.38;;
57891;SDS011;43708;48.828;9.166;2023-03-01T07:25:08;4.05;;;2.20;;
57891;SDS011;43708;48.828;9.166;2023-03-01T07:27:34;2.72;;;2.45;;
57891;SDS011;43708;48.828;9.166;2023-03-01T07:30:00;2.40;;;2.20;;
57891;SDS011;43708;48.828;9.166;2023-03-01T07:32:25;3.00;;;2.22;;
57891;SDS011;43708;48.828;9.166;2023-03-01T07:34:51;2.47;;;2.20;;
57891;SDS011;43708;48.828;9.166;2023-03-01T07:37:17;3.25;;;2.70;;
57891;SDS011;43708;48.828;9.166;2023-03-01T07:39:42;2.92;;;2.10;;
57891;SDS011;43708;48.828;9.166;2023-03-01T07:42:08;2.42;;;2.10;;
57891;SDS011;43708;48.828;9.166;2023-03-01T07:44:34;2.33;;;1.90;;
57891;SDS011;43708;48.828;9.166;2023-03-01T07:46:59;2.35;;;2.10;;
57891;SDS011;43708;48.828;9.166;2023-03-01T07:49:25;2.95;;;2.20;;
57891;SDS011;43708;48.828;9.166;2023-03-01T07:51:53;2.35;;;2.15;;
57891;SDS011;43708;48.828;9.166;2023-03-01T07:54:19;2.97;;;2.30;;
57891;SDS011;43708;48.828;9.166;2023-03-01T07:56:45;2.75;;;2.40;;
57891;SDS011;43708;48.828;9.166;2023-03-01T07:59:11;3.50;;;2.55;;
57891;SDS011;43708;48.828;9.166;2023-03-01T08:01:36;2.95;;;2.28;;
57891;SDS011;43708;48.828;9.166;2023-03-01T08:04:02;2.45;;;2.25;;
57891;SDS011;43708;48.828;9.166;2023-03-01T08:06:29;3.50;;;2.10;;
57891;SDS011;43708;48.828;9.166;2023-03-01T08:08:55;2.22;;;2.03;;
57891;SDS011;43708;48.828;9.166;2023-03-01T08:11:21;2.45;;;2.00;;
57891;SDS011;43708;48.828;9.166;2023-03-01T08:13:47;3.88;;;2.75;;
57891;SDS011;43708;48.828;9.166;2023-03-01T08:16:13;2.20;;;1.88;;
57891;SDS011;43708;48.828;9.166;2023-03-01T08:18:40;2.63;;;2.25;;
57891;SDS011;43708;48.828;9.166;2023-03-01T08:21:08;2.85;;;2.08;;
57891;SDS011;43708;48.828;9.166;2023-03-01T08:23:43;2.42;;;2.13;;
57891;SDS011;43708;48.828;9.166;2023-03-01T08:26:13;2.30;;;2.10;;
57891;SDS011;43708;48.828;9.166;2023-03-01T08:28:41;2.38;;;2.13;;
57891;SDS011;43708;48.828;9.166;2023-03-01T08:34:04;2.88;;;2.58;;
57891;SDS011;43708;48.828;9.166;2023-03-01T08:36:36;2.53;;;2.33;;
57891;SDS011;43708;48.828;9.166;2023-03-01T08:39:04;2.47;;;2.10;;
57891;SDS011;43708;48.828;9.166;2023-03-01T08:41:30;3.13;;;2.60;;
57891;SDS011;43708;48.828;9.166;2023-03-01T08:43:56;2.55;;;2.10;;
57891;SDS011;43708;48.828;9.166;2023-03-01T08:46:28;2.75;;;2.30;;
57891;SDS011;43708;48.828;9.166;2023-03-01T08:48:55;3.15;;;2.15;;
57891;SDS011;43708;48.828;9.166;2023-03-01T08:51:21;2.50;;;2.30;;
57891;SDS011;43708;48.828;9.166;2023-03-01T08:53:47;2.53;;;2.30;;
57891;SDS011;43708;48.828;9.166;2023-03-01T08:56:14;3.13;;;2.35;;
57891;SDS011;43708;48.828;9.166;2023-03-01T08:58:43;2.75;;;2.55;;
57891;SDS011;43708;48.828;9.166;2023-03-01T09:01:10;3.60;;;2.72;;
57891;SDS011;43708;48.828;9.166;2023-03-01T09:03:39;2.95;;;2.50;;
57891;SDS011;43708;48.828;9.166;2023-03-01T09:06:05;4.47;;;2.60;;
57891;SDS011;43708;48.828;9.166;2023-03-01T09:08:35;3.13;;;2.17;;
57891;SDS011;43708;48.828;9.166;2023-03-01T09:11:02;3.92;;;2.33;;
57891;SDS011;43708;48.828;9.166;2023-03-01T09:13:29;3.60;;;2.50;;
57891;SDS011;43708;48.828;9.166;2023-03-01T09:15:59;2.95;;;2.63;;
57891;SDS011;43708;48.828;9.166;2023-03-01T09:18:26;2.78;;;2.20;;
57891;SDS011;43708;48.828;9.166;2023-03-01T09:20:52;2.50;;;1.77;;
57891;SDS011;43708;48.828;9.166;2023-03-01T09:23:21;2.85;;;2.33;;
57891;SDS011;43708;48.828;9.166;2023-03-01T09:25:47;1.95;;;1.85;;
57891;SDS011;43708;48.828;9.166;2023-03-01T09:28:12;2.40;;;2.20;;
57891;SDS011;43708;48.828;9.166;2023-03-01T09:30:38;2.55;;;2.20;;
57891;SDS011;43708;48.828;9.166;2023-03-01T09:33:03;3.53;;;2.58;;
57891;SDS011;43708;48.828;9.166;2023-03-01T09:35:29;2.85;;;2.08;;
57891;SDS011;43708;48.828;9.166;2023-03-01T09:37:55;2.47;;;2.03;;
57891;SDS011;43708;48.828;9.166;2023-03-01T09:40:21;3.15;;;2.13;;
57891;SDS011;43708;48.828;9.166;2023-03-01T09:42:53;3.00;;;1.90;;
57891;SDS011;43708;48.828;9.166;2023-03-01T09:45:30;2.97;;;2.10;;
57891;SDS011;43708;48.828;9.166;2023-03-01T09:47:59;2.03;;;1.83;;
57891;SDS011;43708;48.828;9.166;2023-03-01T09:50:26;2.30;;;1.92;;
57891;SDS011;43708;48.828;9.166;2023-03-01T09:53:02;2.17;;;1.85;;
57891;SDS011;43708;48.828;9.166;2023-03-01T09:58:20;2.90;;;2.03;;
57891;SDS011;43708;48.828;9.166;2023-03-01T10:01:46;2.60;;;2.10;;
57891;SDS011;43708;48.828;9.166;2023-03-01T10:09:43;2.08;;;1.88;;
57891;SDS011;43708;48.828;9.166;2023-03-01T10:12:15;2.70;;;2.50;;
57891;SDS011;43708;48.828;9.166;2023-03-01T10:14:58;2.50;;;2.28;;
57891;SDS011;43708;48.828;9.166;2023-03-01T10:17:48;2.20;;;2.00;;
57891;SDS011;43708;48.828;9.166;2023-03-01T10:20:24;3.10;;;2.00;;
57891;SDS011;43708;48.828;9.166;2023-03-01T10:22:51;2.42;;;2.25;;
57891;SDS011;43708;48.828;9.166;2023-03-01T10:31:40;2.28;;;2.05;;
57891;SDS011;43708;48.828;9.166;2023-03-01T10:34:09;2.35;;;2.15;;
57891;SDS011;43708;48.828;9.166;2023-03-01T10:36:36;2.92;;;2.30;;
57891;SDS011;43708;48.828;9.166;2023-03-01T10:39:10;2.60;;;2.30;;
57891;SDS011;43708;48.828;9.166;2023-03-01T10:41:40;2.38;;;2.17;;
57891;SDS011;43708;48.828;9.166;2023-03-01T10:44:34;2.40;;;2.20;;
57891;SDS011;43708;48.828;9.166;2023-03-01T10:47:01;3.25;;;2.65;;
57891;SDS011;43708;48.828;9.166;2023-03-01T10:49:27;2.92;;;2.50;;
57891;SDS011;43708;48.828;9.166;2023-03-01T10:51:54;2.58;;;2.38;;
57891;SDS011;43708;48.828;9.166;2023-03-01T10:54:29;2.80;;;2.25;;
57891;SDS011;43708;48.828;9.166;2023-03-01T10:56:57;4.13;;;3.10;;
57891;SDS011;43708;48.828;9.166;2023-03-01T10:59:30;5.07;;;2.80;;
57891;SDS011;43708;48.828;9.166;2023-03-01T11:02:29;3.63;;;2.90;;
57891;SDS011;43708;48.828;9.166;2023-03-01T11:05:03;2.60;;;2.38;;
57891;SDS011;43708;48.828;9.166;2023-03-01T11:07:48;3.90;;;2.30;;
57891;SDS011;43708;48.828;9.166;2023-03-01T11:10:21;3.03;;;2.75;;
57891;SDS011;43708;48.828;9.166;2023-03-01T11:12:51;2.65;;;2.05;;
57891;SDS011;43708;48.828;9.166;2023-03-01T11:15:22;2.80;;;2.45;;
57891;SDS011;43708;48.828;9.166;2023-03-01T11:17:50;2.78;;;2.17;;
57891;SDS011;43708;48.828;9.166;2023-03-01T11:23:03;2.10;;;1.90;;
57891;SDS011;43708;48.828;9.166;2023-03-01T11:25:34;2.78;;;2.10;;
57891;SDS011;43708;48.828;9.166;2023-03-01T11:28:03;2.38;;;2.13;;
57891;SDS011;43708;48.828;9.166;2023-03-01T11:30:41;2.20;;;2.00;;
57891;SDS011;43708;48.828;9.166;2023-03-01T11:33:17;2.72;;;2.10;;
57891;SDS011;43708;48.828;9.166;2023-03-01T11:36:08;1.83;;;1.70;;
57891;SDS011;43708;48.828;9.166;2023-03-01T11:38:40;2.35;;;2.10;;
57891;SDS011;43708;48.828;9.166;2023-03-01T11:41:10;2.55;;;1.80;;
57891;SDS011;43708;48.828;9.166;2023-03-01T11:43:57;2.35;;;2.00;;
57891;SDS011;43708;48.828;9.166;2023-03-01T11:52:21;1.90;;;1.80;;
57891;SDS011;43708;48.828;9.166;2023-03-01T12:03:21;2.65;;;2.28;;
57891;SDS011;43708;48.828;9.166;2023-03-01T12:06:04;2.60;;;2.30;;
57891;SDS011;43708;48.828;9.166;2023-03-01T12:08:45;2.22;;;1.80;;
57891;SDS011;43708;48.828;9.166;2023-03-01T12:14:06;2.72;;;2.38;;
57891;SDS011;43708;48.828;9.166;2023-03-01T12:22:02;2.30;;;2.10;;
57891;SDS011;43708;48.828;9.166;2023-03-01T12:27:42;2.70;;;2.15;;
57891;SDS011;43708;48.828;9.166;2023-03-01T12:42:35;3.03;;;2.80;;
57891;SDS011;43708;48.828;9.166;2023-03-01T12:45:21;2.80;;;2.60;;
57891;SDS011;43708;48.828;9.166;2023-03-01T12:50:48;3.28;;;2.50;;
57891;SDS011;43708;48.828;9.166;2023-03-01T12:53:23;2.50;;;2.30;;
57891;SDS011;43708;48.828;9.166;2023-03-01T12:55:55;3.33;;;2.67;;
57891;SDS011;43708;48.828;9.166;2023-03-01T13:06:21;2.50;;;2.30;;
57891;SDS011;43708;48.828;9.166;2023-03-01T13:08:58;2.92;;;2.40;;
57891;SDS011;43708;48.828;9.166;2023-03-01T13:11:29;2.63;;;2.40;;
57891;SDS011;43708;48.828;9.166;2023-03-01T13:14:43;2.77;;;2.50;;
57891;SDS011;43708;48.828;9.166;2023-03-01T13:16:48;2.85;;;2.50;;
57891;SDS011;43708;48.828;9.166;2023-03-01T13:19:15;3.00;;;2.50;;
57891;SDS011;43708;48.828;9.166;2023-03-01T13:21:41;2.25;;;2.05;;
57891;SDS011;43708;48.828;9.166;2023-03-01T13:24:28;2.70;;;2.50;;
57891;SDS011;43708;48.828;9.166;2023-03-01T13:29:54;2.58;;;2.38;;
57891;SDS011;43708;48.828;9.166;2023-03-01T13:34:57;2.80;;;2.50;;
57891;SDS011;43708;48.828;9.166;2023-03-01T13:37:33;2.70;;;2.40;;
57891;SDS011;43708;48.828;9.166;2023-03-01T13:40:03;2.92;;;2.42;;
57891;SDS011;43708;48.828;9.166;2023-03-01T13:42:55;3.58;;;2.50;;
57891;SDS011;43708;48.828;9.166;2023-03-01T13:47:48;2.65;;;2.45;;
57891;SDS011;43708;48.828;9.166;2023-03-01T13:50:20;2.80;;;2.58;;
57891;SDS011;43708;48.828;9.166;2023-03-01T13:52:53;3.28;;;2.50;;
57891;SDS011;43708;48.828;9.166;2023-03-01T13:55:21;2.97;;;2.63;;
57891;SDS011;43708;48.828;9.166;2023-03-01T13:57:55;2.60;;;2.40;;
57891;SDS011;43708;48.828;9.166;2023-03-01T14:00:34;2.53;;;2.33;;
57891;SDS011;43708;48.828;9.166;2023-03-01T14:05:38;2.83;;;2.50;;
57891;SDS011;43708;48.828;9.166;2023-03-01T14:08:14;2.88;;;2.60;;
57891;SDS011;43708;48.828;9.166;2023-03-01T14:10:54;2.83;;;2.63;;
57891;SDS011;43708;48.828;9.166;2023-03-01T14:16:26;2.78;;;2.53;;
57891;SDS011;43708;48.828;9.166;2023-03-01T14:21:33;2.72;;;2.40;;
57891;SDS011;43708;48.828;9.166;2023-03-01T14:24:00;2.63;;;2.40;;
57891;SDS011;43708;48.828;9.166;2023-03-01T14:26:25;2.30;;;2.10;;
57891;SDS011;43708;48.828;9.166;2023-03-01T14:28:51;2.53;;;2.30;;
57891;SDS011;43708;48.828;9.166;2023-03-01T14:31:31;3.20;;;2.38;;
57891;SDS011;43708;48.828;9.166;2023-03-01T14:33:58;2.25;;;2.05;;
57891;SDS011;43708;48.828;9.166;2023-03-01T14:36:27;2.85;;;2.60;;
57891;SDS011;43708;48.828;9.166;2023-03-01T14:38:55;2.75;;;2.25;;
57891;SDS011;43708;48.828;9.166;2023-03-01T14:41:24;2.40;;;2.20;;
57891;SDS011;43708;48.828;9.166;2023-03-01T14:43:55;2.10;;;1.90;;
57891;SDS011;43708;48.828;9.166;2023-03-01T14:46:33;2.30;;;2.10;;
57891;SDS011;43708;48.828;9.166;2023-03-01T14:49:05;2.10;;;1.90;;
57891;SDS011;43708;48.828;9.166;2023-03-01T14:51:41;2.67;;;2.00;;
57891;SDS011;43708;48.828;9.166;2023-03-01T14:54:19;2.80;;;2.28;;
57891;SDS011;43708;48.828;9.166;2023-03-01T14:56:48;3.28;;;1.90;;
57891;SDS011;43708;48.828;9.166;2023-03-01T14:59:18;2.25;;;2.05;;
57891;SDS011;43708;48.828;9.166;2023-03-01T15:01:47;1.90;;;1.80;;
57891;SDS011;43708;48.828;9.166;2023-03-01T15:04:13;2.38;;;2.10;;
57891;SDS011;43708;48.828;9.166;2023-03-01T15:06:39;2.25;;;2.05;;
57891;SDS011;43708;48.828;9.166;2023-03-01T15:09:06;2.30;;;2.10;;
57891;SDS011;43708;48.828;9.166;2023-03-01T15:11:36;2.85;;;2.58;;
57891;SDS011;43708;48.828;9.166;2023-03-01T15:14:24;2.45;;;2.25;;
57891;SDS011;43708;48.828;9.166;2023-03-01T15:17:04;2.45;;;2.25;;
57891;SDS011;43708;48.828;9.166;2023-03-01T15:19:40;2.78;;;2.47;;
57891;SDS011;43708;48.828;9.166;2023-03-01T15:22:12;2.45;;;2.22;;
57891;SDS011;43708;48.828;9.166;2023-03-01T15:24:46;2.92;;;2.63;;
57891;SDS011;43708;48.828;9.166;2023-03-01T15:27:18;2.42;;;2.22;;
57891;SDS011;43708;48.828;9.166;2023-03-01T15:29:50;2.60;;;2.28;;
57891;SDS011;43708;48.828;9.166;2023-03-01T15:34:53;2.70;;;2.47;;
57891;SDS011;43708;48.828;9.166;2023-03-01T15:43:03;3.10;;;2.80;;
57891;SDS011;43708;48.828;9.166;2023-03-01T15:45:30;2.13;;;1.98;;
57891;SDS011;43708;48.828;9.166;2023-03-01T15:48:06;2.30;;;2.10;;
57891;SDS011;43708;48.828;9.166;2023-03-01T15:50:42;2.50;;;2.30;;
57891;SDS011;43708;48.828;9.166;2023-03-01T15:53:12;2.75;;;2.53;;
57891;SDS011;43708;48.828;9.166;2023-03-01T15:55:39;2.40;;;2.20;;
57891;SDS011;43708;48.828;9.166;2023-03-01T15:58:08;2.47;;;2.28;;
57891;SDS011;43708;48.828;9.166;2023-03-01T16:00:37;2.50;;;2.30;;
57891;SDS011;43708;48.828;9.166;2023-03-01T16:03:04;2.47;;;2.25;;
57891;SDS011;43708;48.828;9.166;2023-03-01T16:05:31;2.97;;;2.72;;
57891;SDS011;43708;48.828;9.166;2023-03-01T16:07:59;2.50;;;2.30;;
57891;SDS011;43708;48.828;9.166;2023-03-01T16:10:26;2.88;;;2.67;;
57891;SDS011;43708;48.828;9.166;2023-03-01T16:12:52;2.55;;;2.35;;
57891;SDS011;43708;48.828;9.166;2023-03-01T16:15:22;2.70;;;2.25;;
57891;SDS011;43708;48.828;9.166;2023-03-01T16:17:52;2.58;;;2.35;;
57891;SDS011;43708;48.828;9.166;2023-03-01T16:20:18;2.40;;;2.20;;
57891;SDS011;43708;48.828;9.166;2023-03-01T16:22:44;2.88;;;2.55;;
57891;SDS011;43708;48.828;9.166;2023-03-01T16:25:11;2.97;;;2.65;;
57891;SDS011;43708;48.828;9.166;2023-03-01T16:27:42;2.35;;;2.15;;
57891;SDS011;43708;48.828;9.166;2023-03-01T16:30:08;2.83;;;2.33;;
57891;SDS011;43708;48.828;9.166;2023-03-01T16:32:38;2.42;;;2.13;;
57891;SDS011;43708;48.828;9.166;2023-03-01T16:35:05;2.38;;;2.00;;
57891;SDS011;43708;48.828;9.166;2023-03-01T16:37:31;2.20;;;2.00;;
57891;SDS011;43708;48.828;9.166;2023-03-01T16:39:58;2.28;;;2.08;;
57891;SDS011;43708;48.828;9.166;2023-03-01T16:42:24;2.13;;;1.90;;
57891;SDS011;43708;48.828;9.166;2023-03-01T16:44:54;5.10;;;2.20;;
57891;SDS011;43708;48.828;9.166;2023-03-01T16:47:20;1.95;;;1.80;;